This is the latest recevied weather packets stored in our database for station/object SP8AQK-13. If no packets are shown the sender has not sent any weather packets the latest 10 day(s).
| Time | Temp. | Humidity | Pressure | Rain* | Wind** | Luminosity | Snow |
|---|---|---|---|---|---|---|---|
| 1777776143 | 7.22° C | 79% | 1023.3 hPa | - | - | - | - |
| 1777774942 | 6.11° C | 85% | 1023.5 hPa | - | - | - | - |
| 1777773741 | 6.67° C | 81% | 1023.4 hPa | - | - | - | - |
| 1777771340 | 6.67° C | 84% | 1023.5 hPa | - | - | - | - |
| 1777770139 | 6.67° C | 83% | 1023.4 hPa | - | - | - | - |
| 1777767737 | 7.78° C | 75% | 1023.2 hPa | - | - | - | - |
| 1777765336 | 11.11° C | 57% | 1023 hPa | - | - | - | - |
| 1777764135 | 11.11° C | 57% | 1022.9 hPa | - | - | - | - |
| 1777756931 | 11.11° C | 63% | 1023.7 hPa | - | - | - | - |
| 1777748526 | 11.11° C | 68% | 1023.8 hPa | - | - | - | - |
| 1777744924 | 13.89° C | 60% | 1023.3 hPa | - | - | - | - |
| 1777738920 | 18.89° C | 41% | 1022.7 hPa | - | - | - | - |
| 1777735318 | 18.89° C | 40% | 1023.2 hPa | - | - | - | - |
| 1777734117 | 18.89° C | 39% | 1023.5 hPa | - | - | - | - |
| 1777732916 | 19.44° C | 40% | 1023.6 hPa | - | - | - | - |
| 1777731715 | 19.44° C | 38% | 1023.7 hPa | - | - | - | - |
| 1777730515 | 20.56° C | 37% | 1023.8 hPa | - | - | - | - |
| 1777729314 | 21.11° C | 36% | 1023.9 hPa | - | - | - | - |
| 1777728113 | 21.11° C | 37% | 1024.2 hPa | - | - | - | - |
| 1777726913 | 21.67° C | 37% | 1024.5 hPa | - | - | - | - |
| 1777724511 | 21.67° C | 36% | 1025.1 hPa | - | - | - | - |
| 1777722110 | 20.56° C | 38% | 1025.6 hPa | - | - | - | - |
| 1777720909 | 20.56° C | 39% | 1025.9 hPa | - | - | - | - |
| 1777719708 | 20° C | 40% | 1026.1 hPa | - | - | - | - |
| 1777718507 | 18.89° C | 42% | 1026.5 hPa | - | - | - | - |
* Rain since midnight (hover to see other rain measurements)
** Current wind speed in m/s (hover to see current wind gust speed)